• Join FlightAware (Why Join?)
  • Login
  • US Flag 
05:29PM EDT


 

Airport Tracker/Info


-or-


 

Live Flight TrackerFlight Track Log ✈ N9133G ✈ 10-May-2013 ✈ KFHR - KLVK

Flight Track Log - Related Links

Times and Time Zones

All times are in EDT time to prevent confusion due to time zone crossing. See the N9133G flight status page for this flight to view local times or setup timezone preferences in your user account.

Time Position Orientation Groundspeed Altitude Reporting Facility
EDT Latitude Longitude Course Direction KTS MPH feet Rate Location/Type
02:16PM 48.5103 -123.0258 174° South 106 122 400  Level Seattle Center
02:17PM 48.4825 -123.0217 174° South 111 128 1,500 1,080 Climbing Seattle Center
02:18PM 48.4489 -123.0208 179° South 129 148 2,500 1,020 Climbing Seattle Center
02:19PM 48.4114 -123.0219 181° South 134 154 3,600 1,020 Climbing Seattle Center
02:20PM 48.3728 -123.0181 176° South 129 148 4,900 1,020 Climbing Seattle Center
02:21PM 48.3367 -123.0178 180° South 130 150 6,000 1,140 Climbing Seattle Center
02:22PM 48.2922 -123.0158 178° South 130 150 7,300 1,140 Climbing Seattle Center
02:23PM 48.2564 -123.0175 182° South 128 147 8,400 1,080 Climbing Seattle Center
02:24PM 48.2214 -123.0150 177° South 128 147 9,500 1,020 Climbing Seattle Center
02:25PM 48.1853 -123.0142 179° South 128 147 10,600 1,020 Climbing Seattle Center
02:26PM 48.1497 -123.0119 178° South 128 147 11,700 1,020 Climbing Seattle Center
02:27PM 48.1136 -123.0114 179° South 131 151 12,700 900 Climbing Seattle Center
02:28PM 48.0767 -123.0128 181° South 135 155 13,600 960 Climbing Seattle Center
02:29PM 48.0303 -123.0111 179° South 140 161 14,700 1,020 Climbing Seattle Center
02:30PM 47.9919 -123.0097 179° South 139 160 15,700 960 Climbing Seattle Center
02:31PM 47.9536 -123.0089 179° South 142 163 16,700 840 Climbing Seattle Center
02:32PM 47.9125 -123.0083 179° South 149 171 17,500 720 Climbing Seattle Center
02:33PM 47.8714 -123.0086 180° South 149 171 18,200 780 Climbing Seattle Center
02:35PM 47.8294 -123.0078 179° South 152 175 19,100 780 Climbing Seattle Center
02:36PM 47.7858 -123.0072 180° South 159 183 19,900 840 Climbing Seattle Center
02:37PM 47.7336 -123.0044 178° South 161 185 20,900 780 Climbing Seattle Center
02:38PM 47.6875 -123.0061 181° South 167 192 21,600 660 Climbing Seattle Center
02:39PM 47.6406 -123.0053 179° South 170 196 22,300 660 Climbing Seattle Center
02:40PM 47.5933 -123.0047 180° South 171 197 23,000 300 Climbing Seattle Center
02:41PM 47.5436 -123.0042 180° South 177 204 23,000  Level Seattle Center
02:42PM 47.4922 -123.0044 180° South 185 213 23,000  Level Seattle Center
02:43PM 47.4294 -123.0036 179° South 189 217 23,000  Level Seattle Center
02:44PM 47.3783 -123.0017 179° South 187 215 23,000  Level Seattle Center
02:45PM 47.3258 -123.0014 180° South 189 217 23,000  Level Seattle Center
02:46PM 47.2739 -122.9992 178° South 190 219 23,000  Level Seattle Center
02:47PM 47.2225 -122.9989 180° South 187 215 23,000  Level Seattle Center
02:48PM 47.1711 -122.9983 180° South 188 216 23,000  Level Seattle Center
02:49PM 47.1186 -122.9975 179° South 189 217 23,000  Level Seattle Center
02:50PM 47.0572 -122.9958 179° South 186 214 23,000  Level Seattle Center
02:51PM 47.0056 -122.9958 180° South 187 215 23,000  Level Seattle Center
02:52PM 46.9539 -122.9939 179° South 187 215 23,000  Level Seattle Center
02:53PM 46.9014 -122.9942 180° South 190 219 23,000  Level Seattle Center
02:54PM 46.8489 -122.9914 178° South 192 221 23,000  Level Seattle Center
02:55PM 46.7975 -122.9931 181° South 187 215 23,000  Level Seattle Center
02:56PM 46.7458 -122.9919 179° South 188 216 23,000  Level Seattle Center
02:57PM 46.6844 -122.9903 179° South 187 215 23,000  Level Seattle Center
02:58PM 46.6342 -122.9914 181° South 184 212 23,000  Level Seattle Center
02:59PM 46.5822 -122.9900 179° South 187 215 23,000  Level Seattle Center
03:00PM 46.5297 -122.9892 179° South 190 219 23,000  Level Seattle Center
03:01PM 46.4783 -122.9869 178° South 188 216 23,000  Level Seattle Center
03:02PM 46.4264 -122.9864 180° South 189 217 23,000  Level Seattle Center
03:03PM 46.3642 -122.9858 180° South 189 217 23,000  Level Seattle Center
03:04PM 46.3108 -122.9853 180° South 192 221 23,000  Level Seattle Center
03:05PM 46.2581 -122.9839 179° South 192 221 23,000  Level Seattle Center
03:06PM 46.2058 -122.9814 178° South 190 219 23,000  Level Seattle Center
03:07PM 46.1497 -122.9797 179° South 188 216 23,000  Level Seattle Center
03:08PM 46.0975 -122.9800 180° South 188 216 23,000  Level Seattle Center
03:09PM 46.0444 -122.9792 179° South 189 217 23,000  Level Seattle Center
03:10PM 45.9919 -122.9775 179° South 189 217 23,000  Level Seattle Center
03:11PM 45.9381 -122.9772 180° South 195 224 23,000  Level Seattle Center
03:12PM 45.8847 -122.9750 178° South 194 223 23,000  Level Seattle Center
03:13PM 45.8311 -122.9736 179° South 193 222 23,000  Level Seattle Center
03:14PM 45.7772 -122.9722 179° South 194 223 23,000  Level Seattle Center
03:15PM 45.7233 -122.9717 180° South 194 223 23,000  Level Seattle Center
03:16PM 45.6575 -122.9694 179° South 196 226 23,000  Level Seattle Center
03:17PM 45.6042 -122.9694 180° South 192 221 23,000  Level Seattle Center
03:18PM 45.5492 -122.9686 179° South 195 224 23,000  Level Seattle Center
03:19PM 45.4956 -122.9675 179° South 194 223 23,000  Level Seattle Center
03:20PM 45.4403 -122.9661 179° South 199 229 23,000  Level Seattle Center
03:21PM 45.3864 -122.9631 178° South 195 224 23,000  Level Seattle Center
03:22PM 45.3322 -122.9619 179° South 196 226 23,000  Level Seattle Center
03:23PM 45.2769 -122.9614 180° South 199 229 23,000  Level Seattle Center
03:24PM 45.2231 -122.9597 179° South 195 224 23,000  Level Seattle Center
03:25PM 45.1681 -122.9594 180° South 196 226 23,000  Level Seattle Center
03:27PM 45.1133 -122.9586 179° South 196 226 23,000  Level Seattle Center
03:28PM 45.0586 -122.9581 180° South 196 226 23,000  Level Seattle Center
03:29PM 45.0033 -122.9578 180° South 197 227 23,000  Level Seattle Center
03:30PM 44.9372 -122.9544 178° South 199 229 23,000  Level Seattle Center
03:31PM 44.8817 -122.9542 180° South 199 229 23,000  Level Seattle Center
03:32PM 44.8278 -122.9539 180° South 195 224 23,000  Level Seattle Center
03:33PM 44.7722 -122.9519 179° South 197 227 23,000  Level Seattle Center
03:34PM 44.7172 -122.9508 179° South 197 227 23,000  Level Seattle Center
03:35PM 44.6611 -122.9497 179° South 200 230 23,000  Level Seattle Center
03:36PM 44.6056 -122.9481 179° South 200 230 23,000  Level Seattle Center
03:37PM 44.5506 -122.9469 179° South 197 227 23,000  Level Seattle Center
03:38PM 44.4953 -122.9450 179° South 199 229 23,000  Level Seattle Center
03:39PM 44.4394 -122.9444 180° South 200 230 23,000  Level Seattle Center
03:40PM 44.3836 -122.9442 180° South 201 231 23,000  Level Seattle Center
03:41PM 44.3214 -122.9433 179° South 200 230 23,000  Level Seattle Center
03:42PM 44.2656 -122.9419 179° South 199 229 23,000  Level Seattle Center
03:43PM 44.2094 -122.9414 180° South 200 230 23,000  Level Seattle Center
03:44PM 44.1531 -122.9394 179° South 201 231 23,000  Level Seattle Center
03:45PM 44.0972 -122.9394 180° South 200 230 23,000  Level Seattle Center
03:46PM 44.0411 -122.9378 179° South 201 231 23,000  Level Seattle Center
03:47PM 43.9856 -122.9378 180° South 200 230 23,000  Level Seattle Center
03:48PM 43.9292 -122.9369 179° South 201 231 23,000  Level Seattle Center
03:49PM 43.8728 -122.9356 179° South 202 232 23,000  Level Seattle Center
03:50PM 43.8175 -122.9361 180° South 200 230 23,000  Level Seattle Center
03:51PM 43.7500 -122.9339 179° South 202 232 23,000  Level Seattle Center
03:52PM 43.6931 -122.9333 180° South 204 235 23,000  Level Seattle Center
03:53PM 43.6378 -122.9317 179° South 199 229 23,000  Level Seattle Center
03:54PM 43.5814 -122.9306 179° South 202 232 23,000  Level Seattle Center
03:55PM 43.5256 -122.9286 179° South 200 230 23,000  Level Seattle Center
03:56PM 43.4681 -122.9297 181° South 205 236 23,000  Level Seattle Center
03:57PM 43.4117 -122.9283 179° South 203 234 23,000  Level Seattle Center
03:58PM 43.3561 -122.9267 179° South 202 232 23,000  Level Seattle Center
03:59PM 43.2994 -122.9253 179° South 203 234 23,000  Level Seattle Center
04:00PM 43.2428 -122.9239 179° South 204 235 23,000  Level Seattle Center
04:01PM 43.1864 -122.9236 180° South 204 235 23,000  Level Seattle Center
04:02PM 43.1297 -122.9228 179° South 205 236 23,000  Level Seattle Center
04:03PM 43.0728 -122.9217 179° South 205 236 23,000  Level Seattle Center
04:04PM 43.0047 -122.9208 179° South 205 236 23,000  Level Seattle Center
04:05PM 42.9472 -122.9203 180° South 207 238 23,000  Level Seattle Center
04:06PM 42.8914 -122.9189 179° South 204 235 23,000  Level Seattle Center
04:07PM 42.8342 -122.9169 179° South 205 236 23,000  Level Seattle Center
04:08PM 42.7764 -122.9172 180° South 207 238 23,000  Level Seattle Center
04:09PM 42.7217 -122.9161 179° South 205 236 23,000  Level Seattle Center
04:10PM 42.6653 -122.9136 178° South 205 236 23,000  Level Seattle Center
04:11PM 42.6075 -122.9133 180° South 207 238 23,000  Level Seattle Center
04:12PM 42.5500 -122.9139 180° South 209 241 23,000  Level Seattle Center
04:13PM 42.4933 -122.9133 180° South 206 237 23,000  Level Seattle Center
04:14PM 42.4361 -122.8958 167° South 211 243 23,000  Level Seattle Center
04:15PM 42.3703 -122.8672 162° South 209 241 23,000  Level Seattle Center
04:16PM 42.3144 -122.8453 164° South 210 242 23,000  Level Seattle Center
04:17PM 42.2594 -122.8231 163° South 209 241 23,000  Level Seattle Center
04:18PM 42.2036 -122.8014 164° South 208 239 23,000  Level Seattle Center
04:19PM 42.1475 -122.7797 164° South 211 243 23,000  Level Seattle Center
04:20PM 42.0939 -122.7578 163° South 205 236 23,000  Level Seattle Center
04:21PM 42.0386 -122.7347 163° South 208 239 23,000  Level Seattle Center
04:22PM 41.9831 -122.7131 164° South 209 241 23,000  Level Seattle Center
04:23PM 41.9278 -122.6906 163° South 209 241 23,000  Level Seattle Center
04:25PM 41.8739 -122.6706 165° South 204 235 23,000  Level Seattle Center
04:26PM 41.8189 -122.6483 163° South 208 239 23,000  Level Seattle Center
04:27PM 41.7528 -122.6225 164° South 207 238 23,000  Level Seattle Center
04:28PM 41.6972 -122.6006 164° South 208 239 23,000  Level Seattle Center
04:29PM 41.6419 -122.5794 164° South 208 239 23,000  Level Seattle Center
04:30PM 41.5864 -122.5575 164° South 208 239 23,000  Level Seattle Center
04:31PM 41.5306 -122.5367 164° South 210 242 23,000  Level Seattle Center
04:32PM 41.4750 -122.5147 164° South 209 241 23,000  Level Seattle Center
04:33PM 41.4200 -122.4936 164° South 208 239 23,000  Level Seattle Center
04:34PM 41.3592 -122.4708 164° South 206 237 23,000  Level Seattle Center
04:34PM 41.3369 -122.4603 160° South 207 238 23,000  Level Oakland Center
04:35PM 41.2817 -122.4406 165° South 206 237 23,000  Level Oakland Center
04:36PM 41.2278 -122.4200 164° South 204 235 23,000  Level Oakland Center
04:37PM 41.1728 -122.3978 163° South 205 236 23,000  Level Oakland Center
04:38PM 41.1192 -122.3772 164° South 202 232 23,000  Level Oakland Center
04:39PM 41.0636 -122.3533 162° South 208 239 23,000  Level Oakland Center
04:40PM 41.0089 -122.3317 163° South 207 238 23,000  Level Oakland Center
04:41PM 40.9431 -122.3078 165° South 205 236 23,000  Level Oakland Center
04:42PM 40.8878 -122.2861 163° South 204 235 23,000  Level Oakland Center
04:43PM 40.8325 -122.2661 165° South 205 236 23,000  Level Oakland Center
04:44PM 40.7778 -122.2442 163° South 205 236 23,000  Level Oakland Center
04:45PM 40.7222 -122.2233 164° South 207 238 23,000  Level Oakland Center
04:46PM 40.6672 -122.2028 164° South 205 236 23,000  Level Oakland Center
04:47PM 40.6119 -122.1814 164° South 206 237 23,000  Level Oakland Center
04:48PM 40.5561 -122.1606 164° South 207 238 23,000  Level Oakland Center
04:49PM 40.4897 -122.1353 164° South 207 238 23,000  Level Oakland Center
04:50PM 40.4342 -122.1144 164° South 207 238 23,000  Level Oakland Center
04:51PM 40.3783 -122.0933 164° South 207 238 23,000  Level Oakland Center
04:52PM 40.3222 -122.0711 163° South 209 241 23,000  Level Oakland Center
04:54PM 40.2656 -122.0500 164° South 211 243 23,000  Level Oakland Center
04:55PM 40.2092 -122.0294 164° South 209 241 23,000  Level Oakland Center
04:56PM 40.1531 -122.0086 164° South 209 241 23,000  Level Oakland Center
04:57PM 40.0964 -121.9872 164° South 210 242 23,000  Level Oakland Center
04:58PM 40.0397 -121.9667 164° South 211 243 23,000  Level Oakland Center
04:59PM 39.9825 -121.9453 164° South 213 245 23,000  Level Oakland Center
05:00PM 39.9153 -121.9217 165° South 210 242 23,000  Level Oakland Center
05:01PM 39.8583 -121.8997 164° South 212 244 23,000  Level Oakland Center
05:02PM 39.8019 -121.8794 165° South 212 244 23,000  Level Oakland Center
05:03PM 39.7461 -121.8581 164° South 211 243 23,000  Level Oakland Center
05:04PM 39.6897 -121.8375 164° South 210 242 23,000  Level Oakland Center
05:05PM 39.6333 -121.8167 164° South 211 243 23,000  Level Oakland Center
05:06PM 39.5775 -121.7956 164° South 210 242 23,000  Level Oakland Center
05:07PM 39.5217 -121.7756 165° South 210 242 23,000  Level Oakland Center
05:08PM 39.4647 -121.7544 164° South 212 244 23,000  Level Oakland Center
05:09PM 39.3969 -121.7306 165° South 212 244 23,000 -60 Level Oakland Center
05:10PM 39.3386 -121.7094 164° South 215 247 22,900 -420 Descending Oakland Center
05:11PM 39.2756 -121.6875 165° South 229 264 22,200 -720 Descending Oakland Center
05:12PM 39.2117 -121.6658 165° South 237 273 21,500 -780 Descending Oakland Center
05:13PM 39.1469 -121.6431 165° South 239 275 20,700 -840 Descending Oakland Center
05:14PM 39.0825 -121.6194 164° South 241 277 19,900 -900 Descending Oakland Center
05:14PM 39.0500 -121.6000 155° Southeast 241 277 19,400 -900 Descending Northern Cal TRACON
05:15PM 38.9833 -121.5833 169° South 238 274 18,700 -840 Descending Northern Cal TRACON
05:16PM 38.9333 -121.5667 165° South 231 266 17,900 -720 Descending Northern Cal TRACON
05:17PM 38.8667 -121.5333 159° South 225 259 17,200 -720 Descending Northern Cal TRACON
05:18PM 38.8000 -121.5167 169° South 221 254 16,500 -720 Descending Northern Cal TRACON
05:19PM 38.7333 -121.5000 169° South 220 253 15,800 -780 Descending Northern Cal TRACON
05:20PM 38.6833 -121.4667 153° Southeast 233 268 15,000 -780 Descending Northern Cal TRACON
05:21PM 38.6167 -121.4500 169° South 217 250 14,300 -720 Descending Northern Cal TRACON
05:22PM 38.5667 -121.4333 165° South 213 245 13,700 -780 Descending Northern Cal TRACON
05:23PM 38.5167 -121.4167 165° South 207 238 12,900 -720 Descending Northern Cal TRACON
05:24PM 38.4500 -121.4167 180° South 207 238 12,300 -720 Descending Northern Cal TRACON
05:25PM 38.4000 -121.4333 195° South 198 228 11,500 -780 Descending Northern Cal TRACON
05:26PM 38.3500 -121.4333 180° South 197 227 10,800 -720 Descending Northern Cal TRACON
05:27PM 38.2833 -121.4333 180° South 195 224 10,000 -720 Descending Northern Cal TRACON
05:28PM 38.2333 -121.4333 180° South 196 226 9,300 -720 Descending Northern Cal TRACON
05:29PM 38.1833 -121.4333 180° South 196 226 8,600 -660 Descending Northern Cal TRACON
05:30PM 38.1242 -121.4397 185° South 196 226 8,100 -300 Descending Oakland Center
05:31PM 38.0742 -121.4406 181° South 181 208 8,000 -60 Descending Oakland Center
05:33PM 38.0281 -121.4431 182° South 169 194 8,000 -360 Level Oakland Center
05:34PM 37.9797 -121.4458 183° South 170 196 7,300 -780 Descending Oakland Center
05:35PM 37.9256 -121.4500 183° South 188 216 6,500 -840 Descending Oakland Center
05:35PM 37.8667 -121.4500 180° South 188 216 5,700 -900 Descending Northern Cal TRACON
05:36PM 37.8333 -121.4500 180° South 189 217 4,900 -900 Descending Northern Cal TRACON
05:37PM 37.7667 -121.4500 180° South 188 216 4,100 -600 Descending Northern Cal TRACON
05:38PM 37.7333 -121.4667 202° Southwest 168 193 3,800 -300 Descending Northern Cal TRACON
05:39PM 37.7167 -121.5167 247° West 148 170 3,500 -180 Descending Northern Cal TRACON
05:40PM 37.7000 -121.5667 247° West 138 159 3,500  Level Northern Cal TRACON
05:41PM 37.6833 -121.6167 247° West 136 157 3,500 -300 Level Northern Cal TRACON
05:42PM 37.7000 -121.6667 293° West 126 145 2,900 -720 Descending Northern Cal TRACON
05:43PM 37.7000 -121.7000 270° West 123 142 2,000 -720 Descending Northern Cal TRACON
05:44PM 37.7000 -121.7500 270° West 110 127 1,500 -300 Descending Northern Cal TRACON
05:45PM 37.6833 -121.7667 218° Southwest 107 123 1,500  Level Northern Cal TRACON
05:46PM 37.6833 -121.7667 83° East 107 123 1,500  Level Northern Cal TRACON